Time;durP1;ratioP1;P1;durP2;ratioP2;P2;SDS_P1;SDS_P2;PMS_P1;PMS_P2;Temp;Humidity;BMP_temperature;BMP_pressure;BME280_temperature;BME280_humidity;BME280_pressure;Samples;Min_cycle;Max_cycle;Signal;HPM_P1;HPM_P2
2022/12/14 00:03:07;;;;;;;5.53;3.67;;;16.20;57.60;;;;;;10436348;28;20071;-52
2022/12/14 00:08:09;;;;;;;5.05;3.90;;;16.20;57.50;;;;;;10446913;28;20028;-52
2022/12/14 00:13:16;;;;;;;5.25;3.83;;;16.20;57.50;;;;;;10420387;28;20029;-51
2022/12/14 00:18:16;;;;;;;7.10;4.05;;;16.20;57.40;;;;;;10433500;28;20454;-52
2022/12/14 00:23:17;;;;;;;5.10;3.53;;;16.30;57.40;;;;;;10428763;28;20078;-51
2022/12/14 00:28:18;;;;;;;5.80;3.47;;;16.20;57.30;;;;;;10432807;28;20481;-51
2022/12/14 00:33:18;;;;;;;5.30;3.47;;;16.30;57.40;;;;;;10448057;28;20129;-52
2022/12/14 00:38:19;;;;;;;6.75;4.25;;;16.30;57.30;;;;;;10446301;28;20112;-52
2022/12/14 00:43:21;;;;;;;5.00;3.72;;;16.30;57.30;;;;;;10423433;28;20105;-52
2022/12/14 00:48:23;;;;;;;7.00;3.90;;;16.20;57.30;;;;;;10424102;28;20095;-51
2022/12/14 00:53:24;;;;;;;5.00;3.38;;;16.20;57.30;;;;;;10453803;28;20112;-52
2022/12/14 00:58:26;;;;;;;5.60;3.65;;;16.30;57.30;;;;;;10453039;28;20112;-52
2022/12/14 01:03:27;;;;;;;4.18;3.20;;;16.20;57.30;;;;;;10448836;28;20013;-52
2022/12/14 01:08:34;;;;;;;4.85;4.00;;;16.20;57.20;;;;;;10446667;28;20055;-51
2022/12/14 01:13:36;;;;;;;4.13;2.85;;;16.30;57.20;;;;;;10451900;28;20083;-53
2022/12/14 01:18:39;;;;;;;5.45;4.03;;;16.20;57.20;;;;;;10439811;28;20022;-53
2022/12/14 01:23:41;;;;;;;5.78;3.97;;;16.20;57.10;;;;;;10440023;28;20028;-51
2022/12/14 01:28:42;;;;;;;6.93;3.67;;;16.30;57.10;;;;;;10451641;28;20017;-52
2022/12/14 01:33:46;;;;;;;4.43;2.90;;;16.30;57.10;;;;;;10463363;28;20052;-52
2022/12/14 01:38:50;;;;;;;5.72;3.45;;;16.30;57.10;;;;;;10442318;28;20017;-51
2022/12/14 01:44:23;;;;;;;4.78;3.20;;;16.30;57.10;;;;;;10450808;28;20065;-52
2022/12/14 01:49:40;;;;;;;3.95;3.05;;;16.30;56.90;;;;;;10444154;28;20079;-53
2022/12/14 01:54:50;;;;;;;4.75;2.75;;;16.30;57.00;;;;;;10422915;28;20029;-52
2022/12/14 01:59:52;;;;;;;4.75;2.90;;;16.30;56.90;;;;;;10416725;28;20029;-50
2022/12/14 02:04:58;;;;;;;4.10;2.75;;;16.30;56.80;;;;;;10427559;28;20017;-51
2022/12/14 02:10:04;;;;;;;4.38;2.63;;;16.20;56.90;;;;;;10450123;28;20036;-51
2022/12/14 02:15:06;;;;;;;3.65;2.55;;;16.30;56.90;;;;;;10430050;28;20056;-52
2022/12/14 02:20:07;;;;;;;5.47;3.75;;;16.30;56.80;;;;;;10423071;28;20334;-52
2022/12/14 02:25:29;;;;;;;4.28;3.25;;;16.30;56.80;;;;;;10411469;28;20047;-51
2022/12/14 02:31:04;;;;;;;3.90;2.67;;;16.30;56.80;;;;;;10436806;28;20060;-51
2022/12/14 02:36:19;;;;;;;3.53;2.45;;;16.30;56.80;;;;;;10414604;28;20034;-52
2022/12/14 02:41:56;;;;;;;3.78;3.08;;;16.30;56.70;;;;;;10426541;28;20087;-52
2022/12/14 02:47:18;;;;;;;4.78;2.70;;;16.30;56.80;;;;;;10445432;28;20048;-52
2022/12/14 02:52:31;;;;;;;3.50;2.70;;;16.20;56.70;;;;;;10411622;28;20045;-50
2022/12/14 02:57:47;;;;;;;4.50;2.72;;;16.30;56.70;;;;;;10425197;28;20033;-53
2022/12/14 03:02:49;;;;;;;3.67;2.35;;;16.30;56.70;;;;;;10433516;28;20063;-52
2022/12/14 03:08:00;;;;;;;3.90;2.80;;;16.20;56.60;;;;;;10448994;28;20599;-52
2022/12/14 03:13:32;;;;;;;4.43;2.92;;;16.30;56.70;;;;;;10444334;28;20029;-52
2022/12/14 03:19:01;;;;;;;3.17;2.05;;;16.30;56.50;;;;;;10434453;28;20051;-52
2022/12/14 03:24:11;;;;;;;3.45;2.50;;;16.30;56.60;;;;;;10436901;28;20542;-52
2022/12/14 03:29:21;;;;;;;5.22;2.60;;;16.30;56.60;;;;;;10422615;28;20579;-51
2022/12/14 03:34:51;;;;;;;3.97;2.47;;;16.30;56.50;;;;;;10440768;28;20125;-51
2022/12/14 03:39:52;;;;;;;4.17;2.17;;;16.30;56.40;;;;;;10446483;28;20361;-52
2022/12/14 03:45:09;;;;;;;3.67;2.20;;;16.20;56.30;;;;;;10447429;28;20057;-51
2022/12/14 03:50:14;;;;;;;3.78;2.55;;;16.20;56.30;;;;;;10434680;28;20025;-51
2022/12/14 03:55:38;;;;;;;3.38;2.22;;;16.30;56.20;;;;;;10426775;28;20813;-52
2022/12/14 04:01:10;;;;;;;3.85;2.63;;;16.30;56.20;;;;;;10443574;28;20433;-52
2022/12/14 04:06:50;;;;;;;3.50;2.20;;;16.20;56.10;;;;;;10417776;28;21606;-50
2022/12/14 04:23:01;;;;;;;4.03;3.33;;;16.20;55.90;;;;;;10434267;28;20535;-52
2022/12/14 04:33:47;;;;;;;4.03;2.70;;;16.20;55.80;;;;;;10428457;28;20041;-52
2022/12/14 04:38:56;;;;;;;4.15;2.33;;;16.20;55.70;;;;;;10428302;28;20057;-51
2022/12/14 04:44:03;;;;;;;3.55;2.17;;;16.20;55.80;;;;;;10423060;28;20056;-52
2022/12/14 04:49:18;;;;;;;3.88;2.17;;;16.20;55.70;;;;;;10417499;28;20024;-51
2022/12/14 04:54:48;;;;;;;3.47;2.70;;;16.20;55.60;;;;;;10426498;28;20048;-52
2022/12/14 04:59:49;;;;;;;4.72;2.90;;;16.20;55.40;;;;;;10425061;28;20021;-52
2022/12/14 05:05:23;;;;;;;3.65;2.63;;;16.20;55.40;;;;;;10424379;28;20148;-53
2022/12/14 05:10:29;;;;;;;4.07;2.92;;;16.30;55.20;;;;;;10424114;28;20025;-52
2022/12/14 05:15:45;;;;;;;3.22;2.33;;;16.30;55.00;;;;;;10422787;28;20025;-51
2022/12/14 05:20:49;;;;;;;3.88;2.40;;;16.30;55.20;;;;;;10415546;28;20022;-53
2022/12/14 05:25:50;;;;;;;3.78;2.30;;;16.30;55.00;;;;;;10410936;28;20034;-55
2022/12/14 05:30:50;;;;;;;3.85;2.50;;;16.20;55.00;;;;;;10444397;28;20112;-51
2022/12/14 05:35:51;;;;;;;3.42;2.38;;;16.20;55.10;;;;;;10447572;28;20029;-51
2022/12/14 05:40:52;;;;;;;3.97;2.95;;;16.20;55.10;;;;;;10429855;28;20034;-52
2022/12/14 05:46:00;;;;;;;2.97;2.50;;;16.20;55.20;;;;;;10445208;28;20076;-50
2022/12/14 05:51:11;;;;;;;6.20;3.67;;;16.20;55.20;;;;;;10430588;28;20037;-52
2022/12/14 05:56:12;;;;;;;5.18;4.68;;;16.20;55.10;;;;;;10421842;28;20029;-51
2022/12/14 06:01:13;;;;;;;7.05;6.35;;;16.20;56.10;;;;;;10438871;28;20032;-52
2022/12/14 06:06:14;;;;;;;11.23;7.53;;;16.30;56.40;;;;;;10430195;28;20186;-48
2022/12/14 06:11:18;;;;;;;14.60;8.60;;;16.40;57.30;;;;;;10441001;28;20021;-46
2022/12/14 06:16:25;;;;;;;11.57;9.10;;;16.40;57.80;;;;;;10447235;28;20060;-51
2022/12/14 06:21:30;;;;;;;9.20;7.80;;;16.40;58.50;;;;;;10445102;28;20376;-51
2022/12/14 06:26:35;;;;;;;13.90;8.82;;;16.30;59.10;;;;;;10430124;28;20115;-49
2022/12/14 06:31:37;;;;;;;13.80;8.13;;;16.20;59.10;;;;;;10428303;28;20071;-51
2022/12/14 06:36:41;;;;;;;16.23;9.07;;;16.20;59.60;;;;;;10428272;28;20523;-52
2022/12/14 06:41:42;;;;;;;26.23;9.40;;;16.10;59.00;;;;;;10440559;28;20367;-51
2022/12/14 06:46:43;;;;;;;22.15;10.65;;;16.10;59.40;;;;;;10444726;28;20056;-51
2022/12/14 06:51:44;;;;;;;21.70;9.10;;;16.10;59.80;;;;;;10426153;28;20037;-52
2022/12/14 06:56:46;;;;;;;23.42;10.48;;;16.10;59.40;;;;;;10447562;28;20119;-51
2022/12/14 07:01:46;;;;;;;23.63;8.70;;;16.10;58.60;;;;;;10420358;28;20127;-51
2022/12/14 07:06:47;;;;;;;25.85;8.90;;;16.10;58.30;;;;;;10411098;28;20542;-49
2022/12/14 07:11:50;;;;;;;22.65;8.57;;;16.10;57.90;;;;;;10421965;28;20057;-50
2022/12/14 07:16:51;;;;;;;17.80;7.68;;;16.10;57.90;;;;;;10437687;28;20496;-48
2022/12/14 07:21:52;;;;;;;25.70;8.55;;;16.00;57.10;;;;;;10433353;28;20032;-49
2022/12/14 07:26:55;;;;;;;19.27;7.88;;;16.10;56.60;;;;;;10426620;28;20023;-50
2022/12/14 07:31:55;;;;;;;16.10;6.63;;;16.20;55.90;;;;;;10451423;28;20041;-51
2022/12/14 07:36:56;;;;;;;12.65;7.18;;;16.20;55.50;;;;;;10411762;28;20128;-51
2022/12/14 07:41:57;;;;;;;17.67;7.22;;;16.10;55.30;;;;;;10427235;28;20017;-52
2022/12/14 07:46:58;;;;;;;15.18;5.90;;;16.10;55.50;;;;;;10425359;28;20128;-52
2022/12/14 07:51:58;;;;;;;12.35;6.32;;;16.10;55.40;;;;;;10427083;28;20049;-50
2022/12/14 07:56:59;;;;;;;14.30;5.65;;;16.10;55.30;;;;;;10426106;28;20109;-52
2022/12/14 08:02:00;;;;;;;14.15;5.15;;;16.00;55.50;;;;;;10425764;28;20103;-51
2022/12/14 08:07:00;;;;;;;14.05;5.22;;;16.10;55.30;;;;;;10424898;28;20017;-50
2022/12/14 08:12:01;;;;;;;10.00;4.47;;;16.10;55.50;;;;;;10411712;28;20399;-52
2022/12/14 08:17:02;;;;;;;11.00;4.68;;;16.30;55.50;;;;;;10440690;28;20156;-50
2022/12/14 08:22:02;;;;;;;12.63;5.40;;;16.40;55.30;;;;;;10423270;28;20501;-50
2022/12/14 08:27:03;;;;;;;13.07;5.43;;;16.50;56.20;;;;;;10422408;28;20056;-52
2022/12/14 08:32:04;;;;;;;10.45;6.90;;;16.50;56.70;;;;;;10434496;28;20104;-51
2022/12/14 08:37:05;;;;;;;11.43;7.68;;;16.70;57.30;;;;;;10444056;28;20049;-52
2022/12/14 08:42:05;;;;;;;10.82;8.15;;;16.70;58.10;;;;;;10446068;28;20554;-51
2022/12/14 08:47:06;;;;;;;11.65;10.35;;;16.70;59.00;;;;;;10412797;28;20072;-49
2022/12/14 08:52:08;;;;;;;13.60;11.98;;;16.60;59.80;;;;;;10422971;28;20021;-51
2022/12/14 08:57:09;;;;;;;15.88;14.25;;;16.50;59.70;;;;;;10419130;28;20044;-52
2022/12/14 09:02:09;;;;;;;15.13;12.05;;;16.60;59.30;;;;;;10434776;28;20063;-49
2022/12/14 09:07:10;;;;;;;12.73;11.43;;;16.70;58.80;;;;;;10426463;28;20091;-51
2022/12/14 09:12:11;;;;;;;13.75;10.50;;;16.30;59.10;;;;;;10417925;28;20120;-50
2022/12/14 09:17:12;;;;;;;16.10;9.15;;;16.00;59.40;;;;;;10440025;28;20157;-52
2022/12/14 09:22:13;;;;;;;14.02;9.85;;;15.90;58.90;;;;;;10451991;28;20025;-53
2022/12/14 09:27:13;;;;;;;14.02;9.95;;;16.00;59.20;;;;;;10452204;28;20104;-54
2022/12/14 09:32:14;;;;;;;12.23;9.07;;;16.00;59.50;;;;;;10451106;28;20036;-52
2022/12/14 09:37:15;;;;;;;12.82;8.60;;;15.90;59.80;;;;;;10446260;28;20158;-52
2022/12/14 09:42:54;;;;;;;13.85;8.52;;;15.90;61.00;;;;;;10426315;28;20147;-51
2022/12/14 09:48:16;;;;;;;15.90;7.93;;;15.80;61.30;;;;;;10428848;28;20053;-52
2022/12/14 09:53:20;;;;;;;13.25;8.10;;;15.80;60.70;;;;;;10423452;28;20826;-52
2022/12/14 09:58:25;;;;;;;13.23;7.03;;;15.70;61.20;;;;;;10430934;28;20576;-52
2022/12/14 10:03:41;;;;;;;13.75;7.38;;;15.60;61.70;;;;;;10448153;28;20083;-52
2022/12/14 10:08:53;;;;;;;15.13;7.88;;;15.50;62.30;;;;;;10442225;28;20048;-52
2022/12/14 10:14:15;;;;;;;16.02;7.25;;;15.50;62.40;;;;;;10428107;28;20021;-49
2022/12/14 10:19:33;;;;;;;19.73;7.10;;;15.50;62.50;;;;;;10432403;28;20092;-51
2022/12/14 10:24:43;;;;;;;12.02;6.25;;;15.40;63.00;;;;;;10424781;28;20026;-52
2022/12/14 10:30:06;;;;;;;;;;;15.30;62.70;;;;;;10441943;28;20057;-51
2022/12/14 10:35:17;;;;;;;14.55;5.97;;;15.30;62.50;;;;;;10446715;28;19970;-51
2022/12/14 10:40:29;;;;;;;16.85;6.70;;;15.30;62.80;;;;;;10449899;28;20652;-51
2022/12/14 10:45:43;;;;;;;14.15;6.90;;;15.40;62.00;;;;;;10434822;28;20135;-52
2022/12/14 10:51:13;;;;;;;10.98;5.10;;;15.40;62.00;;;;;;10449242;28;20422;-52
2022/12/14 10:56:30;;;;;;;14.20;6.53;;;15.30;62.50;;;;;;10434495;28;20501;-53
2022/12/14 11:01:31;;;;;;;11.88;5.80;;;15.30;62.40;;;;;;10430099;28;20021;-52
2022/12/14 11:06:32;;;;;;;12.60;5.72;;;15.40;62.60;;;;;;10439489;28;20025;-52
2022/12/14 11:11:33;;;;;;;9.88;5.38;;;15.30;62.70;;;;;;10436252;28;20612;-52
2022/12/14 11:16:40;;;;;;;9.88;5.22;;;15.40;62.40;;;;;;10437857;28;20082;-52
2022/12/14 11:21:40;;;;;;;22.30;11.68;;;15.30;60.80;;;;;;10429862;28;20369;-53
2022/12/14 11:26:42;;;;;;;24.15;12.27;;;15.30;59.90;;;;;;10422678;28;20104;-49
2022/12/14 11:31:47;;;;;;;27.77;12.15;;;15.20;59.00;;;;;;10433018;28;20408;-52
2022/12/14 11:36:48;;;;;;;17.08;9.63;;;15.20;59.30;;;;;;10445822;28;20118;-53
2022/12/14 11:42:00;;;;;;;14.27;8.85;;;15.30;58.90;;;;;;10417640;28;20028;-51
2022/12/14 11:47:14;;;;;;;13.70;8.20;;;15.30;58.80;;;;;;10423643;28;20044;-54
2022/12/14 11:52:41;;;;;;;9.75;6.60;;;15.20;58.80;;;;;;10446873;28;20459;-53
2022/12/14 11:57:52;;;;;;;10.43;6.47;;;15.10;58.70;;;;;;10431250;28;20734;-54
2022/12/14 12:03:12;;;;;;;8.88;5.93;;;14.90;58.40;;;;;;10415735;28;20576;-50
2022/12/14 12:08:23;;;;;;;11.80;7.07;;;15.10;58.40;;;;;;10435015;28;20100;-52
2022/12/14 12:13:39;;;;;;;9.73;6.22;;;15.30;57.60;;;;;;10444372;28;20017;-52
2022/12/14 12:18:49;;;;;;;10.35;5.38;;;15.40;57.50;;;;;;10430760;28;20064;-52
2022/12/14 12:24:21;;;;;;;12.70;6.03;;;15.40;57.60;;;;;;10442249;28;20021;-53
2022/12/14 12:29:31;;;;;;;9.07;6.47;;;15.30;57.50;;;;;;10441954;28;20032;-52
2022/12/14 12:34:54;;;;;;;10.60;5.38;;;15.30;57.70;;;;;;10415606;28;20030;-52
2022/12/14 12:40:09;;;;;;;7.85;5.20;;;15.40;57.60;;;;;;10427975;28;20025;-52
2022/12/14 12:45:38;;;;;;;8.40;5.10;;;15.40;57.30;;;;;;10445531;28;20049;-53
2022/12/14 12:50:46;;;;;;;6.72;4.90;;;15.50;57.30;;;;;;10445354;28;20048;-53
2022/12/14 12:55:52;;;;;;;8.13;4.30;;;15.60;57.10;;;;;;10445193;28;20087;-53
2022/12/14 13:00:57;;;;;;;7.78;4.57;;;15.60;56.80;;;;;;10407514;28;20025;-52
2022/12/14 13:06:29;;;;;;;6.05;4.53;;;15.70;56.80;;;;;;10429675;28;20621;-53
2022/12/14 13:11:37;;;;;;;5.82;3.90;;;15.80;56.50;;;;;;10436535;28;20025;-52
2022/12/14 13:16:38;;;;;;;12.63;4.78;;;15.80;56.30;;;;;;10429427;28;20065;-52
2022/12/14 13:21:49;;;;;;;9.50;4.80;;;15.80;56.40;;;;;;10433914;28;20719;-51
2022/12/14 13:27:25;;;;;;;12.88;4.78;;;15.80;56.50;;;;;;10421068;28;20055;-51
2022/12/14 13:33:15;;;;;;;14.68;5.03;;;15.90;56.50;;;;;;10438808;28;20170;-48
2022/12/14 13:38:56;;;;;;;13.23;4.63;;;15.80;56.30;;;;;;10431289;28;20140;-53
2022/12/14 13:44:48;;;;;;;14.35;4.45;;;15.80;56.30;;;;;;10447484;28;20029;-50
2022/12/14 13:50:02;;;;;;;9.02;4.60;;;15.80;56.40;;;;;;10440014;28;20087;-52
2022/12/14 13:55:24;;;;;;;9.98;3.97;;;15.80;56.20;;;;;;10444412;28;20029;-50
2022/12/14 14:00:58;;;;;;;10.77;4.28;;;15.80;56.20;;;;;;10427915;28;20476;-52
2022/12/14 14:06:10;;;;;;;8.85;3.92;;;15.90;56.00;;;;;;10439877;28;20086;-52
2022/12/14 14:11:22;;;;;;;7.47;3.33;;;15.80;56.20;;;;;;10427014;28;20036;-50
2022/12/14 14:16:36;;;;;;;6.57;3.80;;;15.80;56.20;;;;;;10441343;28;20199;-52
2022/12/14 14:22:03;;;;;;;7.25;4.28;;;15.80;56.10;;;;;;10430459;28;20026;-53
2022/12/14 14:27:15;;;;;;;9.15;4.72;;;15.90;56.00;;;;;;10421654;28;20586;-52
2022/12/14 14:32:40;;;;;;;6.97;3.78;;;15.90;55.90;;;;;;10429149;28;20432;-51
2022/12/14 14:37:40;;;;;;;7.50;3.97;;;15.90;55.80;;;;;;10412664;28;20527;-51
2022/12/14 14:43:16;;;;;;;6.78;3.50;;;15.90;55.70;;;;;;10437562;28;20103;-51
2022/12/14 14:48:30;;;;;;;8.25;3.47;;;15.90;55.50;;;;;;10449322;28;20504;-52
2022/12/14 14:53:34;;;;;;;7.32;3.95;;;15.80;55.60;;;;;;10418771;28;20115;-49
2022/12/14 14:58:38;;;;;;;6.60;3.63;;;15.90;55.50;;;;;;10426792;28;20116;-52
2022/12/14 15:03:59;;;;;;;5.82;3.53;;;15.90;55.50;;;;;;10421194;28;20021;-49
2022/12/14 15:09:09;;;;;;;6.43;3.67;;;15.90;55.50;;;;;;10447869;28;20025;-48
2022/12/14 15:14:30;;;;;;;4.53;3.20;;;15.80;55.40;;;;;;10440120;28;20028;-51
2022/12/14 15:19:35;;;;;;;7.35;3.78;;;15.80;55.30;;;;;;10447726;28;20096;-50
2022/12/14 15:24:43;;;;;;;11.05;3.55;;;15.90;55.40;;;;;;10432560;28;20029;-52
2022/12/14 15:29:45;;;;;;;6.43;3.75;;;15.80;55.60;;;;;;10429818;28;20103;-52
2022/12/14 15:34:58;;;;;;;7.18;3.20;;;15.80;55.60;;;;;;10439990;28;20033;-51
2022/12/14 15:40:14;;;;;;;18.05;5.38;;;15.80;55.80;;;;;;10446107;28;20029;-51
2022/12/14 15:45:19;;;;;;;13.07;4.18;;;15.90;56.10;;;;;;10427213;28;20044;-50
2022/12/14 15:50:32;;;;;;;18.83;4.75;;;15.90;56.40;;;;;;10430239;28;20096;-52
2022/12/14 15:55:40;;;;;;;12.70;4.18;;;16.00;56.40;;;;;;10436008;28;20033;-53
2022/12/14 16:00:45;;;;;;;13.25;4.15;;;16.00;57.20;;;;;;10432394;28;20052;-51
2022/12/14 16:05:46;;;;;;;12.95;4.10;;;16.00;57.50;;;;;;10429773;28;20061;-51
2022/12/14 16:10:51;;;;;;;30.38;7.30;;;15.90;57.90;;;;;;10422901;28;20449;-48
2022/12/14 16:15:55;;;;;;;24.33;6.25;;;15.90;57.70;;;;;;10424521;28;20033;-55
2022/12/14 16:20:59;;;;;;;27.15;7.75;;;15.90;57.80;;;;;;10415213;28;20104;-52
2022/12/14 16:26:36;;;;;;;28.65;5.90;;;15.90;59.10;;;;;;10421496;28;20506;-53
2022/12/14 16:31:37;;;;;;;15.80;4.82;;;15.90;59.30;;;;;;10425516;28;20026;-53
2022/12/14 16:36:38;;;;;;;20.58;5.20;;;15.80;59.00;;;;;;10431468;28;20037;-53
2022/12/14 16:42:00;;;;;;;24.48;6.97;;;15.80;58.30;;;;;;10439972;28;20017;-53
2022/12/14 16:47:01;;;;;;;19.27;5.18;;;15.80;58.00;;;;;;10422141;28;20048;-53
2022/12/14 16:52:25;;;;;;;18.95;5.90;;;15.70;57.60;;;;;;10437090;28;20758;-52
2022/12/14 16:57:26;;;;;;;13.40;5.80;;;15.70;56.80;;;;;;10441509;28;20481;-52
2022/12/14 17:02:40;;;;;;;16.35;9.15;;;15.60;56.40;;;;;;10441690;28;20028;-52
2022/12/14 17:07:40;;;;;;;14.70;9.00;;;15.60;55.70;;;;;;10437146;28;20029;-51
2022/12/14 17:12:42;;;;;;;25.30;8.80;;;15.80;55.50;;;;;;10441898;28;20029;-52
2022/12/14 17:17:45;;;;;;;16.90;9.15;;;15.80;55.90;;;;;;10440785;28;20025;-51
2022/12/14 17:22:45;;;;;;;21.35;9.20;;;16.00;55.30;;;;;;10447648;28;20017;-50
2022/12/14 17:27:46;;;;;;;18.15;6.70;;;16.10;54.90;;;;;;10447003;28;20021;-50
2022/12/14 17:32:48;;;;;;;18.85;7.78;;;16.40;54.20;;;;;;10462142;28;20033;-52
2022/12/14 17:37:49;;;;;;;15.38;6.30;;;16.50;54.30;;;;;;10436391;28;20112;-52
2022/12/14 17:42:53;;;;;;;17.27;7.25;;;16.50;54.20;;;;;;10413599;28;20020;-53
2022/12/14 17:47:54;;;;;;;18.98;6.88;;;16.50;54.60;;;;;;10433588;28;20129;-51
2022/12/14 17:52:55;;;;;;;17.75;6.63;;;16.50;54.50;;;;;;10450699;28;20017;-52
2022/12/14 17:57:56;;;;;;;9.45;6.07;;;16.30;54.10;;;;;;10445833;28;20043;-53
2022/12/14 18:02:57;;;;;;;13.88;5.40;;;16.10;54.00;;;;;;10451224;28;20009;-53
2022/12/14 18:07:58;;;;;;;14.85;5.97;;;16.00;53.70;;;;;;10450175;28;20033;-51
2022/12/14 18:13:00;;;;;;;15.77;7.10;;;16.00;53.10;;;;;;10421947;28;20043;-51
2022/12/14 18:18:01;;;;;;;16.20;6.07;;;16.10;53.70;;;;;;10433311;28;20029;-53
2022/12/14 18:23:01;;;;;;;13.13;5.63;;;16.10;52.30;;;;;;10427859;28;20476;-53
2022/12/14 18:28:05;;;;;;;12.38;6.20;;;16.10;52.40;;;;;;10444591;28;20036;-52
2022/12/14 18:33:15;;;;;;;13.35;5.45;;;16.20;52.40;;;;;;10449708;28;20499;-52
2022/12/14 18:38:16;;;;;;;;;;;16.20;52.30;;;;;;10422230;28;20056;-51
2022/12/14 18:43:23;;;;;;;11.00;4.93;;;16.30;52.40;;;;;;10437215;28;20402;-54
2022/12/14 18:48:24;;;;;;;13.98;5.65;;;16.20;52.50;;;;;;10414572;28;20052;-54
2022/12/14 18:53:26;;;;;;;9.73;5.60;;;16.20;53.10;;;;;;10442685;28;20024;-53
2022/12/14 18:58:28;;;;;;;9.50;5.40;;;16.20;53.10;;;;;;10442095;28;20091;-51
2022/12/14 19:03:31;;;;;;;7.43;5.07;;;16.20;53.30;;;;;;10424814;28;20028;-52
2022/12/14 19:08:31;;;;;;;9.32;5.90;;;16.20;53.30;;;;;;10442483;28;20036;-53
2022/12/14 19:13:32;;;;;;;12.63;6.45;;;16.10;53.20;;;;;;10423779;28;20380;-54
2022/12/14 19:18:35;;;;;;;13.25;6.72;;;16.00;53.90;;;;;;10434007;28;20032;-55
2022/12/14 19:23:35;;;;;;;8.27;5.88;;;16.10;53.90;;;;;;10435733;28;20017;-55
2022/12/14 19:28:37;;;;;;;13.15;5.70;;;16.10;53.90;;;;;;10425814;28;20487;-55
2022/12/14 19:33:38;;;;;;;9.20;5.35;;;16.20;53.90;;;;;;10416354;28;20013;-55
2022/12/14 19:38:38;;;;;;;15.57;5.65;;;16.20;53.70;;;;;;10419785;28;20021;-55
2022/12/14 19:43:39;;;;;;;8.98;4.60;;;16.20;53.80;;;;;;10431767;28;20056;-55
2022/12/14 19:48:41;;;;;;;9.95;5.50;;;16.20;53.60;;;;;;10429690;28;20598;-55
2022/12/14 19:53:43;;;;;;;12.90;6.07;;;16.30;53.60;;;;;;10427532;28;20368;-55
2022/12/14 19:58:46;;;;;;;8.00;4.95;;;16.20;53.70;;;;;;10426378;28;20037;-55
2022/12/14 20:03:48;;;;;;;7.78;5.15;;;16.10;53.90;;;;;;10428296;28;20020;-55
2022/12/14 20:08:48;;;;;;;7.60;5.20;;;16.10;53.90;;;;;;10416597;28;20423;-54
2022/12/14 20:13:50;;;;;;;7.82;4.97;;;16.00;53.70;;;;;;10429085;28;20053;-54
2022/12/14 20:18:51;;;;;;;9.00;5.20;;;16.10;53.70;;;;;;10446768;28;20021;-54
2022/12/14 20:23:52;;;;;;;8.55;5.28;;;16.20;53.30;;;;;;10388311;28;20027;-55
2022/12/14 20:28:57;;;;;;;8.80;4.75;;;16.20;53.30;;;;;;10388150;28;20052;-53
2022/12/14 20:34:00;;;;;;;8.52;4.32;;;16.20;53.10;;;;;;10432715;28;20013;-55
2022/12/14 20:39:04;;;;;;;6.65;5.13;;;16.20;53.10;;;;;;10443003;28;20029;-57
2022/12/14 20:44:10;;;;;;;9.15;4.18;;;16.30;53.40;;;;;;10433672;28;20018;-54
2022/12/14 20:49:16;;;;;;;7.10;4.55;;;16.20;53.10;;;;;;10405356;28;20029;-55
2022/12/14 20:54:18;;;;;;;7.05;4.78;;;16.10;52.70;;;;;;10450296;28;20029;-55
2022/12/14 20:59:19;;;;;;;10.80;4.20;;;16.00;52.80;;;;;;10416225;28;20038;-54
2022/12/14 21:04:19;;;;;;;8.45;5.22;;;16.00;52.60;;;;;;10436409;28;20512;-55
2022/12/14 21:09:20;;;;;;;10.00;5.88;;;16.00;52.30;;;;;;10439121;28;20021;-56
2022/12/14 21:14:23;;;;;;;10.68;5.10;;;16.00;52.90;;;;;;10435520;28;20033;-55
2022/12/14 21:19:24;;;;;;;7.80;5.22;;;16.10;52.20;;;;;;10451308;28;20025;-57
2022/12/14 21:24:25;;;;;;;6.78;4.68;;;16.10;52.00;;;;;;10449744;28;20048;-56
2022/12/14 21:29:26;;;;;;;7.70;5.55;;;16.20;52.00;;;;;;10456295;28;20016;-55
2022/12/14 21:34:27;;;;;;;9.75;5.45;;;16.30;51.90;;;;;;10455979;28;20060;-56
2022/12/14 21:39:28;;;;;;;12.68;5.95;;;16.30;51.70;;;;;;10439587;28;20056;-56
2022/12/14 21:44:30;;;;;;;6.88;5.15;;;16.30;51.60;;;;;;10431743;28;20166;-56
2022/12/14 21:49:31;;;;;;;6.90;5.65;;;16.30;51.80;;;;;;10400211;28;20442;-56
2022/12/14 21:54:32;;;;;;;6.75;5.10;;;16.20;51.90;;;;;;10414220;28;20052;-56
2022/12/14 21:59:37;;;;;;;9.32;5.82;;;16.20;51.90;;;;;;10416331;28;20022;-55
2022/12/14 22:04:38;;;;;;;8.85;6.60;;;16.20;52.00;;;;;;10428005;28;20028;-55
2022/12/14 22:09:38;;;;;;;9.52;6.28;;;16.20;51.90;;;;;;10408525;28;20022;-56
2022/12/14 22:14:39;;;;;;;8.23;4.93;;;16.20;51.80;;;;;;10440340;28;20098;-56
2022/12/14 22:19:40;;;;;;;11.02;6.93;;;16.20;51.80;;;;;;10448830;28;20028;-56
2022/12/14 22:24:42;;;;;;;8.55;6.30;;;16.30;51.80;;;;;;10429752;28;20025;-56
2022/12/14 22:29:43;;;;;;;8.00;5.68;;;16.30;52.30;;;;;;10452982;28;20027;-55
2022/12/14 22:34:43;;;;;;;9.85;5.55;;;16.30;51.70;;;;;;10437999;28;20068;-56
2022/12/14 22:39:44;;;;;;;9.32;6.00;;;16.30;51.80;;;;;;10421945;28;20018;-56
2022/12/14 22:44:47;;;;;;;7.07;5.60;;;16.30;51.70;;;;;;10384776;28;1059213;-56
2022/12/14 22:49:48;;;;;;;8.35;5.75;;;16.40;51.70;;;;;;10448696;28;20128;-56
2022/12/14 22:54:49;;;;;;;8.70;5.13;;;16.40;51.60;;;;;;10444041;28;20051;-54
2022/12/14 23:00:00;;;;;;;7.32;5.43;;;16.40;51.90;;;;;;10414655;28;20033;-55
2022/12/14 23:05:00;;;;;;;6.47;5.15;;;16.30;52.20;;;;;;10435838;28;20072;-56
